Time;durP1;ratioP1;P1;durP2;ratioP2;P2;SDS_P1;SDS_P2;PMS_P1;PMS_P2;Temp;Humidity;BMP_temperature;BMP_pressure;BME280_temperature;BME280_humidity;BME280_pressure;Samples;Min_cycle;Max_cycle;Signal;HPM_P1;HPM_P2
2023/08/29 00:00:47;;;;;;;5.25;4.13;;;31.80;99.90;;;;;;4986888;23;20051;-54
2023/08/29 00:03:12;;;;;;;5.72;4.70;;;31.80;99.90;;;;;;4976056;28;20046;-54
2023/08/29 00:05:38;;;;;;;5.78;4.50;;;31.80;99.90;;;;;;4975809;28;20431;-55
2023/08/29 00:08:05;;;;;;;8.10;4.95;;;31.70;99.90;;;;;;4958630;28;20031;-54
2023/08/29 00:10:31;;;;;;;6.72;4.60;;;31.70;99.90;;;;;;4975878;28;20467;-55
2023/08/29 00:12:57;;;;;;;7.38;4.90;;;31.70;99.90;;;;;;4975974;28;20121;-56
2023/08/29 00:15:23;;;;;;;5.80;4.63;;;31.70;99.90;;;;;;4974966;28;20427;-54
2023/08/29 00:17:49;;;;;;;7.22;5.15;;;31.70;99.90;;;;;;4975739;28;20105;-54
2023/08/29 00:20:14;;;;;;;7.00;4.70;;;31.70;99.90;;;;;;4975703;28;20027;-54
2023/08/29 00:22:40;;;;;;;8.65;4.70;;;31.70;99.90;;;;;;4975797;28;20106;-55
2023/08/29 00:25:06;;;;;;;6.40;4.78;;;31.60;99.90;;;;;;4975605;28;20046;-55
2023/08/29 00:27:32;;;;;;;7.07;4.53;;;31.70;99.90;;;;;;4975619;28;20026;-54
2023/08/29 00:29:58;;;;;;;7.68;4.47;;;31.70;99.90;;;;;;4975697;28;20083;-54
2023/08/29 00:32:24;;;;;;;7.63;4.70;;;31.70;99.90;;;;;;4975335;28;20071;-54
2023/08/29 00:34:49;;;;;;;7.35;4.28;;;31.60;99.90;;;;;;4975500;28;20050;-54
2023/08/29 00:37:15;;;;;;;6.15;4.60;;;31.60;99.90;;;;;;4975387;28;20034;-54
2023/08/29 00:39:41;;;;;;;6.00;4.40;;;31.60;99.90;;;;;;4975293;28;20023;-54
2023/08/29 00:42:08;;;;;;;5.88;4.32;;;31.60;99.90;;;;;;4974401;28;20038;-55
2023/08/29 00:44:34;;;;;;;6.63;4.75;;;31.60;99.90;;;;;;4975208;28;20074;-55
2023/08/29 00:47:03;;;;;;;6.10;4.25;;;31.60;99.90;;;;;;4975557;28;20039;-55
2023/08/29 00:49:29;;;;;;;6.95;4.20;;;31.60;99.90;;;;;;4975361;28;20027;-55
2023/08/29 00:51:56;;;;;;;5.53;3.78;;;31.60;99.90;;;;;;4975058;28;20039;-55
2023/08/29 00:54:22;;;;;;;5.33;4.03;;;31.60;99.90;;;;;;4975149;28;20464;-55
2023/08/29 00:56:48;;;;;;;5.95;4.20;;;31.60;99.90;;;;;;4974983;28;20037;-55
2023/08/29 00:59:14;;;;;;;5.80;4.33;;;31.60;99.90;;;;;;4974972;28;20026;-56
2023/08/29 01:01:40;;;;;;;6.47;3.72;;;31.60;99.90;;;;;;4998790;23;20058;-53
2023/08/29 01:04:08;;;;;;;6.30;4.13;;;31.60;99.90;;;;;;4994302;28;20085;-53
2023/08/29 01:06:35;;;;;;;4.75;4.03;;;31.50;99.90;;;;;;4994373;28;20021;-53
2023/08/29 01:09:02;;;;;;;5.97;3.67;;;31.50;99.90;;;;;;4994371;28;20058;-54
2023/08/29 01:11:43;;;;;;;5.55;3.85;;;31.50;99.90;;;;;;4994210;28;20560;-56
2023/08/29 01:14:36;;;;;;;6.13;3.80;;;31.50;99.90;;;;;;4994306;28;20025;-54
2023/08/29 01:17:11;;;;;;;4.95;3.92;;;31.50;99.90;;;;;;4994324;28;20026;-53
2023/08/29 01:19:40;;;;;;;6.68;4.20;;;31.50;99.90;;;;;;4994088;28;20026;-54
2023/08/29 01:22:26;;;;;;;5.18;3.85;;;31.50;99.90;;;;;;4993886;28;20368;-54
2023/08/29 01:25:01;;;;;;;6.90;4.45;;;31.50;99.90;;;;;;4992791;28;20542;-54
2023/08/29 01:27:28;;;;;;;6.65;4.00;;;31.50;99.90;;;;;;4993916;28;20026;-53
2023/08/29 01:29:56;;;;;;;9.30;4.00;;;31.50;99.90;;;;;;4993943;28;20081;-55
2023/08/29 01:32:23;;;;;;;5.30;3.80;;;31.40;99.90;;;;;;4992546;28;20093;-53
2023/08/29 01:34:51;;;;;;;5.57;4.00;;;31.40;99.90;;;;;;4993779;28;20026;-54
2023/08/29 01:37:17;;;;;;;5.53;3.78;;;31.40;99.90;;;;;;4993622;28;20022;-53
2023/08/29 01:39:43;;;;;;;6.03;3.85;;;31.40;99.90;;;;;;4993829;28;20387;-54
2023/08/29 01:42:08;;;;;;;5.10;3.33;;;31.40;99.90;;;;;;4993755;28;20101;-55
2023/08/29 01:44:34;;;;;;;4.90;4.00;;;31.40;99.90;;;;;;4993499;28;20018;-53
2023/08/29 01:47:00;;;;;;;6.13;3.55;;;31.40;99.90;;;;;;4992363;28;20030;-54
2023/08/29 01:49:27;;;;;;;5.90;3.55;;;31.40;99.90;;;;;;4993889;28;20014;-55
2023/08/29 01:51:53;;;;;;;4.53;3.50;;;31.40;99.90;;;;;;4992349;28;20057;-59
2023/08/29 01:54:19;;;;;;;4.43;3.85;;;31.40;99.90;;;;;;4992255;28;20030;-55
2023/08/29 01:56:46;;;;;;;5.75;3.40;;;31.40;99.90;;;;;;4992176;28;20026;-54
2023/08/29 01:59:11;;;;;;;5.28;3.72;;;31.40;99.90;;;;;;4993362;28;20360;-53
2023/08/29 02:01:38;;;;;;;5.00;3.67;;;31.40;99.90;;;;;;5005063;23;20061;-46
2023/08/29 02:04:04;;;;;;;6.22;3.60;;;31.30;99.90;;;;;;4993434;28;20097;-47
2023/08/29 02:06:30;;;;;;;4.78;3.15;;;31.40;99.90;;;;;;4993542;28;20157;-47
2023/08/29 02:08:56;;;;;;;4.25;3.05;;;31.30;99.90;;;;;;4975939;28;20027;-46
2023/08/29 02:11:21;;;;;;;6.72;3.88;;;31.30;99.90;;;;;;4993130;28;20121;-48
2023/08/29 02:13:47;;;;;;;4.75;3.33;;;31.30;99.90;;;;;;4993161;28;20045;-47
2023/08/29 02:16:13;;;;;;;7.00;3.63;;;31.30;99.90;;;;;;4993094;28;20022;-48
2023/08/29 02:18:39;;;;;;;6.05;3.88;;;31.30;99.90;;;;;;4993208;28;20394;-47
2023/08/29 02:21:04;;;;;;;5.65;3.33;;;31.30;99.90;;;;;;4993223;28;20431;-47
2023/08/29 02:23:31;;;;;;;5.20;3.20;;;31.30;99.90;;;;;;4993306;28;20109;-47
2023/08/29 02:26:04;;;;;;;4.57;3.10;;;31.30;99.90;;;;;;4992984;28;20065;-47
2023/08/29 02:28:35;;;;;;;5.70;3.65;;;31.30;99.90;;;;;;4992906;28;20026;-47
2023/08/29 02:31:09;;;;;;;4.68;3.55;;;31.30;99.90;;;;;;4993089;28;20034;-47
2023/08/29 02:33:37;;;;;;;4.43;3.15;;;31.30;99.90;;;;;;4993196;28;20050;-47
2023/08/29 02:36:06;;;;;;;3.40;2.83;;;31.20;99.90;;;;;;4993084;28;20093;-47
2023/08/29 02:38:32;;;;;;;6.07;3.13;;;31.20;99.90;;;;;;4998100;28;20061;-47
2023/08/29 02:40:58;;;;;;;4.65;3.13;;;31.20;99.90;;;;;;4999408;28;20102;-47
2023/08/29 02:43:25;;;;;;;5.65;3.33;;;31.20;99.90;;;;;;4999337;28;20133;-46
2023/08/29 02:45:51;;;;;;;4.70;3.00;;;31.20;99.90;;;;;;4999386;28;20022;-47
2023/08/29 02:48:17;;;;;;;5.88;2.97;;;31.20;99.90;;;;;;4999243;28;20077;-47
2023/08/29 02:50:42;;;;;;;4.75;2.90;;;31.20;99.90;;;;;;4999218;28;20479;-46
2023/08/29 02:53:08;;;;;;;4.80;2.97;;;31.20;99.90;;;;;;4999265;28;20506;-47
2023/08/29 02:55:34;;;;;;;4.72;3.45;;;31.20;99.90;;;;;;4999490;28;20037;-47
2023/08/29 02:58:00;;;;;;;5.07;3.25;;;31.20;99.90;;;;;;4999202;28;20045;-46
2023/08/29 03:00:26;;;;;;;6.82;3.45;;;31.20;99.90;;;;;;5019054;23;20034;-53
2023/08/29 03:02:51;;;;;;;5.07;2.70;;;31.20;99.90;;;;;;4998771;28;20046;-52
2023/08/29 03:05:17;;;;;;;4.30;2.90;;;31.20;99.90;;;;;;4999257;28;20041;-52
2023/08/29 03:07:43;;;;;;;4.65;2.90;;;31.20;99.90;;;;;;4999311;28;20033;-53
2023/08/29 03:10:09;;;;;;;4.03;2.97;;;31.20;99.90;;;;;;4999160;28;20382;-52
2023/08/29 03:12:35;;;;;;;4.57;3.17;;;31.20;99.90;;;;;;4999111;28;20501;-52
2023/08/29 03:15:01;;;;;;;4.57;2.95;;;31.20;99.90;;;;;;4997846;28;20035;-52
2023/08/29 03:17:27;;;;;;;4.28;2.53;;;31.10;99.90;;;;;;4999025;28;20105;-54
2023/08/29 03:19:52;;;;;;;4.18;2.97;;;31.10;99.90;;;;;;4997668;28;20028;-53
2023/08/29 03:22:18;;;;;;;4.25;2.60;;;31.10;99.90;;;;;;4999129;28;20030;-52
2023/08/29 03:24:47;;;;;;;3.50;2.80;;;31.10;99.90;;;;;;4999251;28;20431;-53
2023/08/29 03:27:13;;;;;;;5.82;2.88;;;31.10;99.90;;;;;;4999002;28;20030;-54
2023/08/29 03:29:40;;;;;;;5.25;3.00;;;31.10;99.90;;;;;;4997861;28;20041;-53
2023/08/29 03:32:06;;;;;;;4.65;2.97;;;31.10;99.90;;;;;;4999128;28;20049;-53
2023/08/29 03:34:32;;;;;;;8.05;2.80;;;31.10;99.90;;;;;;4998928;28;20026;-53
2023/08/29 03:36:58;;;;;;;5.60;2.53;;;31.10;99.90;;;;;;4997747;28;20465;-53
2023/08/29 03:39:24;;;;;;;5.63;2.97;;;31.10;99.90;;;;;;4998816;28;20018;-53
2023/08/29 03:41:50;;;;;;;5.07;2.77;;;31.00;99.90;;;;;;4997548;28;20030;-53
2023/08/29 03:44:16;;;;;;;3.80;2.80;;;31.00;99.90;;;;;;4998913;28;20254;-53
2023/08/29 03:46:42;;;;;;;3.58;2.30;;;31.00;99.90;;;;;;4998799;28;20057;-53
2023/08/29 03:49:07;;;;;;;5.43;2.28;;;31.00;99.90;;;;;;4996590;28;20050;-53
2023/08/29 03:51:34;;;;;;;5.80;2.75;;;31.00;99.90;;;;;;4995670;28;20026;-53
2023/08/29 03:53:59;;;;;;;5.13;2.60;;;31.00;99.90;;;;;;4995828;28;20029;-54
2023/08/29 03:56:25;;;;;;;3.42;2.63;;;31.00;99.90;;;;;;4995636;28;20109;-54
2023/08/29 03:58:51;;;;;;;4.32;2.22;;;31.00;99.90;;;;;;4995756;28;20052;-53
2023/08/29 04:01:20;;;;;;;3.17;2.60;;;31.00;99.90;;;;;;4996025;28;20521;-53
2023/08/29 04:03:46;;;;;;;4.68;2.95;;;31.00;99.90;;;;;;4995540;28;20027;-55
2023/08/29 04:06:12;;;;;;;6.38;2.80;;;31.00;99.90;;;;;;4995543;28;20049;-54
2023/08/29 04:08:37;;;;;;;5.70;2.70;;;31.00;99.90;;;;;;4995531;28;20026;-53
2023/08/29 04:11:04;;;;;;;6.38;2.80;;;30.90;99.90;;;;;;4995422;28;20467;-52
2023/08/29 04:13:30;;;;;;;4.37;2.20;;;30.90;99.90;;;;;;4995480;28;20143;-52
2023/08/29 04:16:03;;;;;;;6.03;2.78;;;30.90;99.90;;;;;;4995507;28;20252;-53
2023/08/29 04:18:33;;;;;;;4.38;2.25;;;30.90;99.90;;;;;;4995324;28;20097;-53
2023/08/29 04:20:59;;;;;;;5.13;2.70;;;30.90;99.90;;;;;;4995103;28;20493;-52
2023/08/29 04:23:25;;;;;;;4.53;2.60;;;30.90;99.90;;;;;;4995196;28;20035;-52
2023/08/29 04:26:01;;;;;;;5.10;2.47;;;30.90;99.90;;;;;;4995029;28;20205;-53
2023/08/29 04:28:27;;;;;;;3.90;2.47;;;30.80;99.90;;;;;;4995059;28;20054;-53
2023/08/29 04:30:54;;;;;;;4.97;2.42;;;30.90;99.90;;;;;;4994811;28;20096;-52
2023/08/29 04:33:20;;;;;;;3.50;2.38;;;30.80;99.90;;;;;;4994946;28;20034;-52
2023/08/29 04:35:50;;;;;;;3.78;2.50;;;30.80;99.90;;;;;;4994815;28;20034;-53
2023/08/29 04:38:15;;;;;;;6.13;2.33;;;30.80;99.90;;;;;;4994924;28;20034;-51
2023/08/29 04:40:41;;;;;;;3.97;2.25;;;30.80;99.90;;;;;;4993718;28;20025;-52
2023/08/29 04:43:07;;;;;;;5.65;2.80;;;30.80;99.90;;;;;;4994779;28;20117;-52
2023/08/29 04:45:33;;;;;;;4.25;2.97;;;30.80;99.90;;;;;;4993437;28;20088;-52
2023/08/29 04:47:59;;;;;;;5.22;2.55;;;30.80;99.90;;;;;;4994608;28;20029;-53
2023/08/29 04:50:26;;;;;;;6.30;3.72;;;30.80;99.90;;;;;;4994554;28;20081;-53
2023/08/29 04:52:53;;;;;;;6.30;3.10;;;30.80;99.90;;;;;;4993167;28;20042;-53
2023/08/29 04:55:20;;;;;;;6.03;2.50;;;30.80;99.90;;;;;;4994601;28;20053;-53
2023/08/29 04:57:45;;;;;;;5.05;3.10;;;30.80;99.90;;;;;;4994500;28;20058;-53
2023/08/29 05:00:12;;;;;;;5.20;2.95;;;30.80;99.90;;;;;;4994428;28;20411;-54
2023/08/29 05:02:39;;;;;;;5.20;2.50;;;30.80;99.90;;;;;;4994410;28;20133;-52
2023/08/29 05:05:06;;;;;;;6.80;2.70;;;30.80;99.90;;;;;;4994362;28;20046;-52
2023/08/29 05:07:32;;;;;;;5.75;3.08;;;30.70;99.90;;;;;;4994309;28;20027;-52
2023/08/29 05:09:58;;;;;;;4.57;2.67;;;30.70;99.90;;;;;;4994200;28;20023;-52
2023/08/29 05:12:24;;;;;;;7.15;3.35;;;30.70;99.90;;;;;;4994201;28;20034;-52
2023/08/29 05:14:50;;;;;;;6.35;2.60;;;30.70;99.90;;;;;;4994175;28;20109;-53
2023/08/29 05:17:15;;;;;;;5.38;2.67;;;30.70;99.90;;;;;;4994030;28;20070;-52
2023/08/29 05:19:41;;;;;;;6.10;3.00;;;30.70;99.90;;;;;;4994169;28;20033;-52
2023/08/29 05:22:07;;;;;;;3.88;2.65;;;30.70;99.90;;;;;;4992842;28;20029;-52
2023/08/29 05:24:33;;;;;;;5.22;2.40;;;30.70;99.90;;;;;;4993959;28;20034;-52
2023/08/29 05:26:59;;;;;;;8.18;2.50;;;30.70;99.90;;;;;;4993857;28;20058;-52
2023/08/29 05:29:25;;;;;;;5.70;2.45;;;30.70;99.90;;;;;;4993906;28;20046;-52
2023/08/29 05:31:51;;;;;;;5.10;2.72;;;30.70;99.90;;;;;;4993726;28;20038;-52
2023/08/29 05:34:16;;;;;;;5.65;2.70;;;30.70;99.90;;;;;;4993825;28;20497;-52
2023/08/29 05:36:42;;;;;;;6.93;2.70;;;30.70;99.90;;;;;;4993941;28;20453;-52
2023/08/29 05:39:08;;;;;;;4.20;2.50;;;30.70;99.90;;;;;;4993675;28;20513;-53
2023/08/29 05:41:34;;;;;;;7.32;2.60;;;30.70;99.90;;;;;;4993684;28;20037;-53
2023/08/29 05:44:00;;;;;;;4.75;2.63;;;30.70;99.90;;;;;;4993716;28;20030;-53
2023/08/29 05:46:25;;;;;;;4.93;2.78;;;30.60;99.90;;;;;;4992219;28;20113;-54
2023/08/29 05:48:51;;;;;;;4.65;2.70;;;30.60;99.90;;;;;;4993449;28;20121;-51
2023/08/29 05:51:17;;;;;;;5.47;2.35;;;30.60;99.90;;;;;;4993631;28;20069;-53
2023/08/29 05:53:42;;;;;;;4.97;2.38;;;30.60;99.90;;;;;;4993752;28;20481;-53
2023/08/29 05:56:08;;;;;;;4.78;1.90;;;30.60;99.90;;;;;;4993381;28;20498;-53
2023/08/29 05:58:34;;;;;;;4.18;2.40;;;30.60;99.90;;;;;;4993421;28;20113;-53
2023/08/29 06:01:00;;;;;;;5.30;2.70;;;30.60;99.90;;;;;;4993178;28;20088;-55
2023/08/29 06:03:26;;;;;;;4.53;2.28;;;30.60;99.90;;;;;;4993331;28;20054;-53
2023/08/29 06:05:52;;;;;;;4.65;2.33;;;30.60;99.90;;;;;;4993286;28;20427;-53
2023/08/29 06:08:17;;;;;;;3.85;2.40;;;30.60;99.90;;;;;;4991982;28;20088;-52
2023/08/29 06:10:43;;;;;;;3.70;2.22;;;30.60;99.90;;;;;;4993514;28;20467;-53
2023/08/29 06:13:09;;;;;;;4.47;2.67;;;30.60;99.90;;;;;;4992458;28;20486;-54
2023/08/29 06:15:35;;;;;;;3.80;2.00;;;30.60;99.90;;;;;;4993103;28;20022;-53
2023/08/29 06:18:01;;;;;;;3.80;2.08;;;30.60;99.90;;;;;;4993114;28;20371;-52
2023/08/29 06:20:27;;;;;;;4.40;1.95;;;30.60;99.90;;;;;;4993064;28;20025;-52
2023/08/29 06:22:56;;;;;;;4.68;2.30;;;30.50;99.90;;;;;;4993021;28;20073;-53
2023/08/29 06:25:22;;;;;;;3.97;1.83;;;30.60;99.90;;;;;;4991927;28;20084;-53
2023/08/29 06:27:48;;;;;;;4.18;1.98;;;30.50;99.90;;;;;;4992964;28;20601;-53
2023/08/29 06:30:14;;;;;;;5.20;2.40;;;30.60;99.90;;;;;;4991883;28;20056;-53
2023/08/29 06:32:41;;;;;;;4.95;2.40;;;30.60;99.90;;;;;;4992807;28;20097;-53
2023/08/29 06:35:09;;;;;;;4.55;1.95;;;30.50;99.90;;;;;;4991725;28;20033;-53
2023/08/29 06:37:36;;;;;;;3.13;2.20;;;30.60;99.90;;;;;;4993022;28;20022;-54
2023/08/29 06:40:04;;;;;;;2.97;1.80;;;30.60;99.90;;;;;;4992902;28;20018;-54
2023/08/29 06:42:31;;;;;;;4.53;2.50;;;30.50;99.90;;;;;;4992825;28;20065;-54
2023/08/29 06:44:58;;;;;;;6.00;2.15;;;30.50;99.90;;;;;;4992818;28;20061;-55
2023/08/29 06:47:27;;;;;;;4.10;2.38;;;30.60;99.90;;;;;;4991884;28;20080;-53
2023/08/29 06:49:54;;;;;;;6.30;2.00;;;30.60;99.90;;;;;;4992743;28;20033;-53
2023/08/29 06:52:21;;;;;;;3.60;1.95;;;30.50;99.90;;;;;;4992722;28;20461;-55
2023/08/29 06:54:47;;;;;;;3.43;1.93;;;30.50;99.90;;;;;;4992953;28;20061;-55
2023/08/29 06:57:12;;;;;;;3.83;2.00;;;30.60;99.90;;;;;;4991343;28;20058;-53
2023/08/29 06:59:39;;;;;;;4.90;2.13;;;30.60;99.90;;;;;;4992673;28;20030;-53
2023/08/29 07:02:04;;;;;;;2.25;1.77;;;30.50;99.90;;;;;;4992517;28;20058;-54
2023/08/29 07:04:30;;;;;;;4.03;1.92;;;30.60;99.90;;;;;;4992448;28;20026;-53
2023/08/29 07:06:56;;;;;;;5.70;2.60;;;30.50;99.90;;;;;;4992900;28;20056;-54
2023/08/29 07:09:22;;;;;;;5.72;2.65;;;30.60;99.90;;;;;;4992687;28;20097;-54
2023/08/29 07:11:48;;;;;;;3.13;1.75;;;30.50;99.90;;;;;;4992834;28;20038;-54
2023/08/29 07:14:14;;;;;;;5.20;2.17;;;30.50;99.90;;;;;;4992562;28;20113;-53
2023/08/29 07:16:39;;;;;;;3.03;1.98;;;30.50;99.90;;;;;;4992554;28;20030;-54
2023/08/29 07:19:05;;;;;;;2.53;1.88;;;30.50;99.90;;;;;;4992453;28;20471;-54
2023/08/29 07:21:31;;;;;;;6.78;2.13;;;30.50;99.90;;;;;;4991250;28;20379;-54
2023/08/29 07:23:57;;;;;;;4.15;2.20;;;30.50;99.90;;;;;;4994026;28;20029;-53
2023/08/29 07:26:23;;;;;;;4.22;2.05;;;30.50;99.90;;;;;;4996240;28;20026;-54
2023/08/29 07:28:48;;;;;;;4.63;1.98;;;30.60;99.90;;;;;;4996219;28;20034;-53
2023/08/29 07:31:14;;;;;;;3.63;1.83;;;30.60;99.90;;;;;;4996031;28;20073;-54
2023/08/29 07:33:40;;;;;;;2.88;1.80;;;30.60;99.90;;;;;;4996021;28;20061;-55
2023/08/29 07:36:06;;;;;;;2.72;1.55;;;30.60;99.90;;;;;;4996000;28;20037;-54
2023/08/29 07:38:31;;;;;;;7.35;2.10;;;30.60;99.90;;;;;;4994844;28;20022;-54
2023/08/29 07:40:57;;;;;;;5.50;2.20;;;30.60;99.90;;;;;;4995907;28;20424;-54
2023/08/29 07:43:23;;;;;;;2.67;1.95;;;30.60;99.90;;;;;;4995861;28;20434;-54
2023/08/29 07:45:52;;;;;;;4.15;2.45;;;30.60;99.90;;;;;;4996241;28;20025;-53
2023/08/29 07:48:19;;;;;;;3.30;2.10;;;30.60;99.90;;;;;;4995907;28;20057;-54
2023/08/29 07:50:45;;;;;;;3.28;1.83;;;30.60;99.90;;;;;;4995873;28;20042;-56
2023/08/29 07:53:11;;;;;;;2.67;1.90;;;30.60;99.90;;;;;;4994412;28;20121;-55
2023/08/29 07:55:37;;;;;;;4.35;2.20;;;30.70;99.90;;;;;;4995608;28;20098;-54
2023/08/29 07:58:03;;;;;;;3.85;2.10;;;30.70;99.90;;;;;;4995572;28;20026;-54
2023/08/29 08:00:29;;;;;;;3.92;1.95;;;30.60;99.90;;;;;;4995586;28;20030;-54
2023/08/29 08:02:55;;;;;;;3.83;2.13;;;30.60;99.90;;;;;;4995476;28;20042;-53
2023/08/29 08:05:21;;;;;;;5.50;2.25;;;30.70;99.90;;;;;;4995850;28;20108;-53
2023/08/29 08:07:47;;;;;;;2.65;2.13;;;30.70;99.90;;;;;;4994289;28;20053;-54
2023/08/29 08:10:15;;;;;;;3.78;2.03;;;30.70;99.90;;;;;;4995325;28;20034;-53
2023/08/29 08:12:41;;;;;;;3.00;2.10;;;30.70;99.90;;;;;;4995253;28;20149;-54
2023/08/29 08:15:09;;;;;;;3.55;2.30;;;30.70;99.90;;;;;;4995446;28;20022;-53
2023/08/29 08:17:35;;;;;;;;;;;30.70;99.90;;;;;;4995850;28;20022;-53
2023/08/29 08:20:05;;;;;;;2.78;2.25;;;30.70;99.90;;;;;;4995451;28;19953;-53
2023/08/29 08:22:31;;;;;;;5.85;2.50;;;30.70;99.90;;;;;;4995297;28;20027;-54
2023/08/29 08:24:56;;;;;;;2.83;2.17;;;30.70;99.90;;;;;;4994927;28;20540;-55
2023/08/29 08:27:22;;;;;;;3.13;2.13;;;30.70;99.90;;;;;;4995329;28;20033;-55
2023/08/29 08:29:48;;;;;;;4.43;2.70;;;30.70;99.90;;;;;;4995097;28;20088;-54
2023/08/29 08:32:14;;;;;;;3.63;2.47;;;30.70;99.90;;;;;;4994913;28;20322;-54
2023/08/29 08:34:39;;;;;;;2.85;2.40;;;30.70;99.90;;;;;;4994628;28;20026;-54
2023/08/29 08:37:05;;;;;;;4.72;2.75;;;30.70;99.90;;;;;;4993330;28;20479;-54
2023/08/29 08:39:31;;;;;;;3.70;2.72;;;30.70;99.90;;;;;;4994780;28;20068;-54
2023/08/29 08:41:57;;;;;;;4.45;2.67;;;30.80;99.90;;;;;;4993577;28;20030;-54
2023/08/29 08:44:25;;;;;;;4.65;2.78;;;30.80;99.90;;;;;;4995103;28;20072;-54
2023/08/29 08:46:52;;;;;;;3.50;2.10;;;30.80;99.90;;;;;;4995017;28;20038;-55
2023/08/29 08:49:19;;;;;;;6.18;2.63;;;30.80;99.90;;;;;;4994849;28;20482;-54
2023/08/29 08:51:46;;;;;;;4.13;2.80;;;30.80;99.90;;;;;;4994564;28;20096;-54
2023/08/29 08:54:14;;;;;;;4.25;3.15;;;30.80;99.90;;;;;;4994715;28;20508;-54
2023/08/29 08:56:40;;;;;;;5.28;3.60;;;30.80;99.90;;;;;;4993278;28;20037;-54
2023/08/29 08:59:06;;;;;;;4.15;2.70;;;30.80;99.90;;;;;;4994784;28;20025;-54
2023/08/29 09:01:32;;;;;;;4.43;2.88;;;30.80;99.90;;;;;;4994382;28;20047;-54
2023/08/29 09:03:58;;;;;;;4.25;3.08;;;30.90;99.90;;;;;;4994416;28;20072;-54
2023/08/29 09:06:23;;;;;;;5.47;3.38;;;30.80;99.90;;;;;;4994505;28;20065;-53
2023/08/29 09:08:49;;;;;;;4.78;3.35;;;30.80;99.90;;;;;;4994129;28;20034;-54
2023/08/29 09:11:18;;;;;;;4.22;3.40;;;30.80;99.90;;;;;;4994109;28;20492;-54
2023/08/29 09:13:50;;;;;;;6.20;3.65;;;30.90;99.90;;;;;;4994129;28;20541;-53
2023/08/29 09:16:16;;;;;;;10.07;5.30;;;30.90;99.90;;;;;;4994222;28;20019;-54
2023/08/29 09:18:49;;;;;;;4.38;3.92;;;30.90;99.90;;;;;;4994016;28;20084;-53
2023/08/29 09:21:16;;;;;;;5.50;4.15;;;30.90;99.90;;;;;;4993952;28;20014;-54
2023/08/29 09:23:42;;;;;;;7.55;3.63;;;30.90;99.90;;;;;;4994068;28;20105;-54
2023/08/29 09:26:11;;;;;;;7.63;4.13;;;30.90;99.90;;;;;;4993966;28;20130;-54
2023/08/29 09:28:38;;;;;;;9.50;4.20;;;30.90;99.90;;;;;;4994034;28;20049;-54
2023/08/29 09:31:08;;;;;;;5.43;3.63;;;30.90;99.90;;;;;;4993883;28;20026;-54
2023/08/29 09:33:35;;;;;;;7.00;4.05;;;30.90;99.90;;;;;;4993747;28;20096;-53
2023/08/29 09:36:02;;;;;;;10.77;4.95;;;30.90;99.90;;;;;;4993866;28;20417;-54
2023/08/29 09:38:29;;;;;;;7.20;4.82;;;30.90;99.90;;;;;;4992377;28;20532;-52
2023/08/29 09:40:55;;;;;;;7.53;4.50;;;30.90;99.90;;;;;;4993816;28;20031;-54
2023/08/29 09:43:21;;;;;;;4.57;3.50;;;31.00;99.90;;;;;;4993769;28;20478;-54
2023/08/29 09:45:52;;;;;;;8.57;4.30;;;31.00;99.90;;;;;;4993495;28;20037;-55
2023/08/29 09:48:18;;;;;;;5.28;3.97;;;31.00;99.90;;;;;;4992645;28;20595;-54
2023/08/29 09:50:46;;;;;;;6.38;3.85;;;31.00;99.90;;;;;;4993555;28;20030;-55
2023/08/29 09:53:16;;;;;;;;;;;31.00;99.90;;;;;;4993793;28;20031;-55
2023/08/29 09:55:48;;;;;;;6.60;3.95;;;31.00;99.90;;;;;;4993530;28;19905;-54
2023/08/29 09:58:15;;;;;;;6.40;4.03;;;31.10;99.90;;;;;;4991939;28;20064;-53
2023/08/29 10:00:43;;;;;;;5.55;4.28;;;31.00;99.90;;;;;;4993159;28;20382;-53
2023/08/29 10:03:09;;;;;;;;;;;31.00;99.90;;;;;;4993808;28;20046;-52
2023/08/29 10:05:37;;;;;;;5.40;3.85;;;31.10;99.90;;;;;;4993193;28;19913;-53
2023/08/29 10:08:07;;;;;;;8.45;4.55;;;31.10;99.90;;;;;;4993215;28;20037;-53
2023/08/29 10:10:34;;;;;;;5.53;4.03;;;31.10;99.90;;;;;;4993116;28;20105;-53
2023/08/29 10:13:02;;;;;;;5.88;4.40;;;31.10;99.90;;;;;;4993008;28;20473;-54
2023/08/29 10:15:29;;;;;;;8.38;4.13;;;31.10;99.90;;;;;;4993146;28;20031;-53
2023/08/29 10:17:56;;;;;;;8.23;5.22;;;31.10;99.90;;;;;;4993343;28;20042;-53
2023/08/29 10:20:22;;;;;;;8.57;4.60;;;31.10;99.90;;;;;;4993145;28;20018;-53
2023/08/29 10:22:50;;;;;;;6.00;4.70;;;31.20;99.90;;;;;;4993026;28;20033;-54
2023/08/29 10:25:18;;;;;;;;;;;31.20;99.90;;;;;;4993480;28;20069;-53
2023/08/29 10:27:44;;;;;;;6.43;4.43;;;31.20;99.90;;;;;;4992926;28;19906;-54
2023/08/29 10:30:11;;;;;;;6.82;5.00;;;31.20;99.90;;;;;;4992953;28;20027;-54
2023/08/29 10:32:38;;;;;;;7.93;4.65;;;31.20;99.90;;;;;;4993012;28;20117;-54
2023/08/29 10:35:05;;;;;;;9.50;5.30;;;31.30;99.90;;;;;;4993003;28;20034;-54
2023/08/29 10:37:31;;;;;;;6.93;5.35;;;31.30;99.90;;;;;;4992888;28;20026;-54
2023/08/29 10:40:11;;;;;;;5.18;4.57;;;31.30;99.90;;;;;;4993051;28;20030;-53
2023/08/29 10:43:00;;;;;;;6.22;4.78;;;31.30;99.90;;;;;;4992730;28;20418;-53
2023/08/29 10:45:51;;;;;;;6.22;4.57;;;31.30;99.90;;;;;;4992994;28;20022;-54
2023/08/29 10:48:18;;;;;;;7.32;5.30;;;31.40;99.90;;;;;;4992788;28;20033;-53
2023/08/29 10:51:08;;;;;;;7.53;5.03;;;31.40;99.90;;;;;;4991664;28;20510;-53
2023/08/29 10:53:38;;;;;;;6.60;4.80;;;31.40;99.90;;;;;;4992613;28;20034;-53
2023/08/29 10:56:08;;;;;;;6.00;4.35;;;31.40;99.90;;;;;;4992713;28;20023;-53
2023/08/29 10:58:39;;;;;;;6.68;4.35;;;31.40;99.90;;;;;;4993808;28;20046;-54
2023/08/29 11:01:07;;;;;;;5.65;4.40;;;31.40;99.90;;;;;;4996573;28;20039;-53
2023/08/29 11:03:51;;;;;;;7.55;4.85;;;31.50;99.90;;;;;;4996804;28;20019;-53
2023/08/29 11:06:22;;;;;;;6.32;4.22;;;31.50;99.90;;;;;;4996413;28;20030;-53
2023/08/29 11:08:49;;;;;;;5.22;4.05;;;31.50;99.90;;;;;;4996574;28;20061;-53
2023/08/29 11:11:18;;;;;;;6.35;4.40;;;31.50;99.90;;;;;;4996377;28;20030;-53
2023/08/29 11:13:58;;;;;;;5.63;4.28;;;31.50;99.90;;;;;;4996634;28;20399;-52
2023/08/29 11:16:25;;;;;;;5.88;4.72;;;31.50;99.90;;;;;;4995162;28;20023;-53
2023/08/29 11:19:04;;;;;;;5.72;4.30;;;31.60;99.90;;;;;;4996392;28;20418;-54
2023/08/29 11:21:30;;;;;;;5.00;3.83;;;31.60;99.90;;;;;;4995359;28;20494;-53
2023/08/29 11:23:57;;;;;;;5.30;4.13;;;31.60;99.90;;;;;;4996285;28;20026;-53
2023/08/29 11:26:25;;;;;;;4.47;3.70;;;31.60;99.90;;;;;;4996291;28;20030;-53
2023/08/29 11:28:51;;;;;;;7.50;4.22;;;31.60;99.90;;;;;;4996211;28;20030;-53
2023/08/29 11:31:18;;;;;;;7.43;4.17;;;31.60;99.90;;;;;;4996121;28;20054;-54
2023/08/29 11:33:48;;;;;;;7.60;4.22;;;31.60;99.90;;;;;;4995954;28;20268;-54
2023/08/29 11:36:15;;;;;;;5.90;4.00;;;31.60;99.90;;;;;;4995991;28;20375;-52
2023/08/29 11:38:42;;;;;;;5.40;3.83;;;31.60;99.90;;;;;;4995959;28;20525;-53
2023/08/29 11:41:10;;;;;;;10.18;4.55;;;31.70;99.90;;;;;;4994638;28;20058;-52
2023/08/29 11:43:36;;;;;;;5.97;4.03;;;31.70;99.90;;;;;;4995952;28;20018;-53
2023/08/29 11:46:04;;;;;;;5.28;3.95;;;31.70;99.90;;;;;;4994734;28;20026;-53
2023/08/29 11:48:33;;;;;;;;;;;31.70;99.90;;;;;;4996443;28;20023;-53
2023/08/29 11:51:06;;;;;;;7.20;4.35;;;31.70;99.90;;;;;;4995682;28;19909;-53
2023/08/29 11:53:36;;;;;;;4.35;3.78;;;31.70;99.90;;;;;;4994606;28;20499;-52
2023/08/29 11:56:09;;;;;;;6.38;4.38;;;31.70;99.90;;;;;;4995823;28;20533;-53
2023/08/29 11:58:37;;;;;;;5.40;3.22;;;31.80;99.90;;;;;;4995831;28;20489;-52
2023/08/29 12:01:04;;;;;;;5.30;3.85;;;31.80;99.90;;;;;;4995628;28;20034;-52
2023/08/29 12:03:35;;;;;;;6.55;3.83;;;31.80;99.90;;;;;;4995676;28;20383;-54
2023/08/29 12:06:03;;;;;;;6.90;3.60;;;31.80;99.90;;;;;;4994488;28;20026;-53
2023/08/29 12:08:44;;;;;;;4.47;3.47;;;31.80;99.90;;;;;;4995399;28;20486;-53
2023/08/29 12:11:13;;;;;;;5.82;3.83;;;31.80;99.90;;;;;;4994124;28;20014;-54
2023/08/29 12:13:42;;;;;;;8.63;3.55;;;31.80;99.90;;;;;;4995291;28;20061;-53
2023/08/29 12:16:16;;;;;;;4.15;3.60;;;31.80;99.90;;;;;;4995079;28;20029;-53
2023/08/29 12:18:42;;;;;;;3.92;3.17;;;31.80;99.90;;;;;;4995185;28;20049;-53
2023/08/29 12:21:15;;;;;;;5.63;3.35;;;31.90;99.90;;;;;;4995224;28;20077;-53
2023/08/29 12:23:42;;;;;;;5.68;3.05;;;31.90;99.90;;;;;;4995157;28;20056;-53
2023/08/29 12:26:09;;;;;;;4.65;3.10;;;31.80;99.90;;;;;;4995201;28;20133;-53
2023/08/29 12:28:35;;;;;;;4.63;3.63;;;31.90;99.90;;;;;;4995305;28;20110;-53
2023/08/29 12:31:01;;;;;;;7.00;3.50;;;31.90;99.90;;;;;;4995065;28;20106;-53
2023/08/29 12:33:27;;;;;;;5.70;3.42;;;31.90;99.90;;;;;;4994778;28;20030;-54
2023/08/29 12:35:53;;;;;;;4.50;3.60;;;31.90;99.90;;;;;;4995063;28;20360;-53
2023/08/29 12:38:20;;;;;;;5.35;2.90;;;31.90;99.90;;;;;;4994954;28;20037;-54
2023/08/29 12:40:46;;;;;;;4.68;3.25;;;32.00;99.90;;;;;;4993838;28;20022;-53
2023/08/29 12:43:12;;;;;;;6.53;3.58;;;32.00;99.90;;;;;;4994905;28;20081;-56
2023/08/29 12:45:38;;;;;;;4.90;3.50;;;32.00;99.90;;;;;;4994831;28;20034;-53
2023/08/29 12:48:04;;;;;;;5.32;3.60;;;32.00;99.90;;;;;;4995039;28;20038;-55